Warning: Javascript must be enabled to use all the features on this page!


Page Loading - Please Wait...

Click to hideNews Bulletins

Peak Streamflow for the Nation

USGS 07075300 South Fork of Little Red River at Clinton, AR

Van Buren County, Arkansas
Hydrologic Unit Code 11010014
Latitude  35°35'13", Longitude  92°27'05" NAD83
Drainage area 148  square miles
Gage datum 472.83 feet above NAVD88
Output formats
Table
Graph
Tab-separated file
peakfq (watstore) format
Reselect output format
Water
Year
Date Gage
Height
(feet)
Stream-
flow
(cfs)
1962 1962-02-26 16.19 6,910
1963 1963-03-17 10.50 1,560
1964 1964-03-09 24.00 24,300
1965 1965-03-29 14.34 4,720
1966 1966-02-10 19.00 10,600
1967 1967-04-14 12.30 2,930
1968 1968-05-14 19.50 14,200
1969 1969-01-30 21.35 18,200
1970 1970-04-26 18.87 12,800
1971 1970-10-27 16.07 7,720
1972 1971-12-10 21.66 18,900
1973 1973-04-23 19.35 13,800
1974 1973-12-04 23.20 22,400
1975 1975-03-28 21.53 18,600
1976 1976-06-25 13.79 4,300
1977 1977-03-28 26.43 32,700
1978 1978-09-13 16.98 8,770
1979 1979-02-23 18.86 12,200
1980 1979-12-24 17.11 9,000
1981 1981-03-29 12.70 3,140
1982 1982-01-31 21.04 17,100
1983 1982-12-03 34.27 67,900
1984 1984-05-03 15.59 6,590
1985 1984-10-25 15.29 6,180
1986 1985-11-27 16.30 10,600
1987 1987-02-16 13.42 3,860
1988 1988-03-03 12.88 5,660
1989 1989-02-15 16.31 13,900
1990 1990-05-03 18.18 18,000
1991 1991-04-14 14.45 9,250
1992 1991-11-19 14.21 8,790
1993 1993-01-04 17.47 16,100
1994 1994-02-22 11.39 4,840
1995 1994-11-05 12.62 6,630
1996 1996-09-27 6.87 822
1997 1997-04-05 15.59 12,200
1998 1998-01-05 16.18 13,500
1999 1998-10-06 16.97 15,400
2000 2000-02-26 9.82 3,010
2001 2001-02-16 13.37 7,870
2002 2001-12-17 16.37 15,400
2003 2003-05-17 10.02 3,840
2004 2004-04-23 13.03 7,900
2005 2004-11-29 12.99 7,840
2006 2006-05-04 11.57 5,780
2007 2007-01-15 15.61 12,400
2008 2008-03-19 20.27 22,500
2009 2009-05-02 14.52 9,740
2010 2009-10-30 16.68 13,500
2011 2011-04-26 18.43 17,000
2012 2011-11-22 19.29 18,800
2013 2013-01-13 21.59 24,000
2014 2014-04-28 13.50 8,140
2015 2015-05-11 17.51 15,100
2016 2015-12-28 19.14 18,400
2017 2017-04-30 14.29 9,370
2018 2018-08-20 17.52 15,300
2019 2019-02-11 16.45 13,300
2020 2020-01-11 16.33 13,400